Time;durP1;ratioP1;P1;durP2;ratioP2;P2;SDS_P1;SDS_P2;PMS_P1;PMS_P2;Temp;Humidity;BMP_temperature;BMP_pressure;BME280_temperature;BME280_humidity;BME280_pressure;Samples;Min_cycle;Max_cycle;Signal;HPM_P1;HPM_P2
2022/06/24 00:00:31;;;;;;;23.27;12.77;;;;;;;15.03;82.25;99503.47;6195079;23;20003;-76
2022/06/24 00:02:56;;;;;;;20.40;12.80;;;;;;;14.95;82.76;99485.75;6193934;23;20016;-74
2022/06/24 00:05:22;;;;;;;18.08;9.82;;;;;;;15.01;82.75;99496.31;6167778;23;20016;-75
2022/06/24 00:07:52;;;;;;;17.80;9.95;;;;;;;15.07;82.63;99499.75;6116230;23;20009;-74
2022/06/24 00:10:19;;;;;;;18.90;12.07;;;;;;;15.05;82.34;99485.47;6139321;23;20016;-75
2022/06/24 00:12:46;;;;;;;16.23;10.40;;;;;;;15.11;82.31;99500.75;6190638;23;20008;-74
2022/06/24 00:15:12;;;;;;;13.93;10.52;;;;;;;15.07;82.36;99491.50;6139291;23;20013;-74
2022/06/24 00:17:37;;;;;;;11.88;7.88;;;;;;;15.08;82.24;99492.28;6139141;23;20024;-74
2022/06/24 00:20:06;;;;;;;17.92;10.50;;;;;;;15.13;82.53;99492.97;6137774;23;20084;-74
2022/06/24 00:22:41;;;;;;;20.40;12.07;;;;;;;15.14;82.70;99494.59;6162500;23;20005;-74
2022/06/24 00:25:11;;;;;;;15.48;11.27;;;;;;;15.18;82.57;99484.53;6164417;23;20016;-75
2022/06/24 00:27:38;;;;;;;21.30;10.70;;;;;;;15.18;82.96;99495.56;6165490;23;20013;-73
2022/06/24 00:30:12;;;;;;;19.48;11.48;;;;;;;15.22;82.85;99481.16;6166222;23;20412;-74
2022/06/24 00:32:38;;;;;;;15.85;11.32;;;;;;;15.19;82.88;99482.63;6165670;23;20011;-75
2022/06/24 00:35:11;;;;;;;16.38;10.13;;;;;;;15.21;82.96;99476.78;6165614;23;20004;-77
2022/06/24 00:37:40;;;;;;;20.20;10.73;;;;;;;15.17;83.03;99463.66;6191106;23;20379;-75
2022/06/24 00:40:09;;;;;;;21.80;10.68;;;;;;;15.22;83.17;99475.66;6138403;23;20498;-74
2022/06/24 00:42:37;;;;;;;18.02;9.80;;;;;;;15.16;83.58;99470.28;6163801;23;20264;-74
2022/06/24 00:45:24;;;;;;;20.48;10.02;;;;;;;15.16;83.67;99470.28;6163919;23;20039;-74
2022/06/24 00:47:50;;;;;;;14.23;9.48;;;;;;;15.13;83.81;99470.94;6163860;23;20001;-75
2022/06/24 00:50:31;;;;;;;20.25;9.73;;;;;;;15.11;83.94;99467.69;6164598;23;20012;-73
2022/06/24 00:52:59;;;;;;;15.88;9.23;;;;;;;15.11;84.67;99467.69;6189833;23;20005;-73
2022/06/24 00:55:34;;;;;;;10.07;7.10;;;;;;;15.10;84.08;99457.81;6164025;23;20009;-74
2022/06/24 00:58:00;;;;;;;14.48;7.50;;;;;;;15.18;84.09;99468.00;6164055;23;20005;-73
2022/06/24 01:00:31;;;;;;;11.48;6.57;;;;;;;15.18;83.95;99462.50;6139153;23;20001;-74
2022/06/24 01:02:59;;;;;;;13.98;7.88;;;;;;;15.18;83.96;99456.19;6163123;23;20076;-73
2022/06/24 01:05:25;;;;;;;12.40;6.75;;;;;;;15.21;83.78;99460.25;6161549;23;20017;-73
2022/06/24 01:07:51;;;;;;;11.85;7.25;;;;;;;15.22;83.44;99456.38;6138525;23;20009;-71
2022/06/24 01:10:16;;;;;;;15.75;6.82;;;;;;;15.21;83.46;99452.00;6187864;23;20013;-72
2022/06/24 01:12:42;;;;;;;14.70;6.85;;;;;;;15.26;83.08;99451.84;6139621;23;20048;-73
2022/06/24 01:15:08;;;;;;;14.15;6.35;;;;;;;15.23;83.62;99446.97;6138953;23;20083;-73
2022/06/24 01:17:33;;;;;;;8.50;5.88;;;;;;;15.22;83.51;99450.88;6188787;23;20036;-72
2022/06/24 01:19:59;;;;;;;10.32;5.50;;;;;;;15.21;83.27;99447.28;6189175;23;20009;-72
2022/06/24 01:22:26;;;;;;;10.20;5.47;;;;;;;15.20;83.64;99462.22;6138075;23;20120;-72
2022/06/24 01:24:53;;;;;;;18.77;6.28;;;;;;;15.21;83.69;99452.00;6164350;23;20391;-73
2022/06/24 01:27:18;;;;;;;11.45;5.78;;;;;;;15.16;83.73;99442.75;6190508;23;20107;-73
2022/06/24 01:29:45;;;;;;;9.13;4.93;;;;;;;15.16;84.00;99445.50;6190750;23;20332;-74
2022/06/24 01:32:12;;;;;;;8.45;4.75;;;;;;;15.17;83.58;99444.38;6163054;23;20451;-71
2022/06/24 01:34:38;;;;;;;8.00;4.97;;;;;;;15.18;83.93;99440.47;6190141;23;20087;-72
2022/06/24 01:37:04;;;;;;;11.75;4.85;;;;;;;15.16;83.52;99437.25;6187946;23;20039;-73
2022/06/24 01:39:30;;;;;;;8.93;5.32;;;;;;;15.15;83.69;99430.09;6138791;23;20005;-71
2022/06/24 01:41:58;;;;;;;8.75;4.65;;;;;;;15.14;83.50;99431.25;6187947;23;20013;-72
2022/06/24 01:44:24;;;;;;;9.93;4.13;;;;;;;15.12;83.75;99424.44;6163215;23;20012;-73
2022/06/24 01:46:51;;;;;;;10.63;4.82;;;;;;;15.11;83.90;99423.66;6188749;23;20001;-72
2022/06/24 01:49:17;;;;;;;13.93;5.05;;;;;;;15.10;83.79;99422.00;6164063;23;20104;-74
2022/06/24 01:51:47;;;;;;;11.43;4.82;;;;;;;15.05;84.02;99424.09;6140111;23;20015;-73
2022/06/24 01:54:12;;;;;;;8.73;4.22;;;;;;;15.08;83.70;99429.75;6163446;23;20008;-74
2022/06/24 01:56:38;;;;;;;10.07;4.88;;;;;;;15.02;84.38;99425.56;6163328;23;20005;-73
2022/06/24 01:59:04;;;;;;;6.72;4.28;;;;;;;14.97;84.16;99423.75;6188678;23;20087;-74
2022/06/24 02:01:30;;;;;;;9.95;4.43;;;;;;;14.99;84.20;99420.69;6164262;23;20005;-75
2022/06/24 02:03:55;;;;;;;8.00;3.88;;;;;;;14.99;83.90;99424.25;6198818;23;20418;-74
2022/06/24 02:07:06;;;;;;;9.85;4.05;;;;;;;14.90;83.74;99406.09;6195409;23;20143;-74
2022/06/24 02:13:26;;;;;;;4.07;2.80;;;;;;;15.01;83.87;99401.94;6193487;23;20026;-74
2022/06/24 02:15:08;;;;;;;6.05;3.75;;;;;;;15.03;83.36;99394.16;6219285;23;20019;-73
2022/06/24 02:17:36;;;;;;;7.60;3.63;;;;;;;15.03;83.13;99399.66;6220449;23;20001;-73
2022/06/24 02:20:02;;;;;;;10.55;4.18;;;;;;;14.98;83.13;99381.34;6194406;23;20015;-74
2022/06/24 02:22:30;;;;;;;5.90;3.00;;;;;;;14.94;82.80;99382.31;6195574;23;20008;-73
2022/06/24 02:24:58;;;;;;;10.13;4.07;;;;;;;14.98;83.07;99388.78;6222496;23;20024;-74
2022/06/24 02:27:27;;;;;;;10.80;3.30;;;;;;;14.99;83.13;99396.72;6170708;23;20102;-73
2022/06/24 02:30:01;;;;;;;6.68;3.05;;;;;;;14.98;82.91;99394.28;6223556;23;20020;-73
2022/06/24 02:32:27;;;;;;;5.90;3.10;;;;;;;14.97;82.82;99389.94;6196437;23;20019;-73
2022/06/24 02:34:52;;;;;;;12.27;4.20;;;;;;;14.97;83.00;99387.16;6222521;23;20029;-73
2022/06/24 02:37:17;;;;;;;7.00;3.10;;;;;;;14.80;83.00;99369.47;6194411;23;20048;-72
2022/06/24 02:39:43;;;;;;;5.55;2.95;;;;;;;14.94;82.87;99385.06;6170205;23;20091;-72
2022/06/24 02:42:08;;;;;;;7.97;2.97;;;;;;;14.90;83.01;99373.88;6168664;23;20063;-72
2022/06/24 02:44:34;;;;;;;5.75;2.95;;;;;;;14.88;83.04;99364.31;6194932;23;20055;-74
2022/06/24 02:46:59;;;;;;;7.60;3.38;;;;;;;14.94;82.55;99376.81;6164517;23;20013;-73
2022/06/24 02:49:24;;;;;;;6.47;2.95;;;;;;;14.86;82.67;99374.84;6169720;23;20328;-73
2022/06/24 02:51:50;;;;;;;6.47;2.97;;;;;;;14.83;82.53;99379.03;6169952;23;20070;-73
2022/06/24 02:54:15;;;;;;;11.18;3.47;;;;;;;14.78;82.42;99365.44;6169439;23;20014;-73
2022/06/24 02:56:41;;;;;;;7.70;2.78;;;;;;;14.74;82.68;99370.75;6170182;23;20009;-72
2022/06/24 02:59:06;;;;;;;5.50;2.58;;;;;;;14.72;82.88;99373.03;6168155;23;20370;-72
2022/06/24 03:01:31;;;;;;;5.63;2.33;;;;;;;14.75;82.32;99371.59;6194575;23;20016;-72
2022/06/24 03:03:57;;;;;;;10.45;3.47;;;;;;;14.73;82.59;99374.63;6187525;23;20024;-72
2022/06/24 03:06:22;;;;;;;8.30;2.63;;;;;;;14.63;82.79;99370.25;6140510;23;20063;-73
2022/06/24 03:08:48;;;;;;;7.00;3.05;;;;;;;14.59;82.60;99362.94;6140284;23;20017;-73
2022/06/24 03:11:14;;;;;;;5.63;2.97;;;;;;;14.51;82.89;99355.44;6139763;23;20087;-72
2022/06/24 03:13:39;;;;;;;7.15;2.65;;;;;;;14.45;82.97;99358.31;6163886;23;20128;-73
2022/06/24 03:16:05;;;;;;;6.45;2.75;;;;;;;14.41;83.15;99356.53;6167063;23;20016;-73
2022/06/24 03:18:30;;;;;;;7.00;2.20;;;;;;;14.36;83.27;99364.94;6139150;23;20017;-73
2022/06/24 03:20:55;;;;;;;3.97;2.40;;;;;;;14.33;83.20;99360.88;6164621;23;20471;-72
2022/06/24 03:23:21;;;;;;;7.95;2.85;;;;;;;14.30;83.10;99351.31;6139422;23;20385;-73
2022/06/24 03:25:46;;;;;;;5.55;2.78;;;;;;;14.26;83.59;99352.28;6165822;23;20024;-72
2022/06/24 03:28:12;;;;;;;7.90;2.72;;;;;;;14.26;83.21;99355.03;6140198;23;20101;-72
2022/06/24 03:30:37;;;;;;;4.82;2.47;;;;;;;14.25;83.03;99364.38;6116746;23;20005;-72
2022/06/24 03:33:03;;;;;;;5.40;2.60;;;;;;;14.21;83.21;99360.69;6165699;23;20012;-71
2022/06/24 03:35:29;;;;;;;8.45;3.42;;;;;;;14.22;83.72;99362.28;6113148;23;20008;-72
2022/06/24 03:37:55;;;;;;;4.10;3.08;;;;;;;14.19;83.93;99365.66;6191380;23;20012;-72
2022/06/24 03:40:20;;;;;;;7.85;3.05;;;;;;;14.19;83.36;99360.16;6139107;23;20071;-72
2022/06/24 03:42:46;;;;;;;4.53;3.00;;;;;;;14.19;83.52;99365.66;6138456;23;20086;-73
2022/06/24 03:45:11;;;;;;;8.88;2.58;;;;;;;14.16;84.02;99360.81;6139721;23;20005;-73
2022/06/24 03:47:37;;;;;;;13.68;3.60;;;;;;;14.09;83.93;99367.56;6140276;23;20095;-72
2022/06/24 03:50:06;;;;;;;4.10;2.47;;;;;;;14.06;83.98;99362.69;6165732;23;20004;-71
2022/06/24 03:52:32;;;;;;;7.43;3.53;;;;;;;14.08;84.34;99368.69;6139913;23;20008;-72
2022/06/24 03:54:57;;;;;;;6.95;3.58;;;;;;;14.03;84.32;99357.00;6139652;23;20291;-74
2022/06/24 03:57:22;;;;;;;8.05;3.42;;;;;;;14.02;84.84;99358.94;6140102;23;20088;-73
2022/06/24 03:59:48;;;;;;;8.18;4.10;;;;;;;14.01;84.69;99356.53;6165680;23;20001;-73
2022/06/24 04:02:13;;;;;;;11.43;4.00;;;;;;;14.00;84.82;99357.63;6141451;23;20020;-73
2022/06/24 04:04:39;;;;;;;13.90;4.55;;;;;;;13.97;84.90;99356.31;6139659;23;20089;-73
2022/06/24 04:07:04;;;;;;;5.55;3.63;;;;;;;13.96;85.13;99352.78;6115165;23;20039;-71
2022/06/24 04:09:30;;;;;;;8.43;3.88;;;;;;;13.97;85.24;99356.31;6163428;23;20428;-75
2022/06/24 04:11:55;;;;;;;7.10;4.43;;;;;;;13.95;85.29;99350.34;6140766;23;20035;-73
2022/06/24 04:17:05;;;;;;;9.43;5.28;;;;;;;13.85;85.56;99359.66;6147103;23;20019;-73
2022/06/24 04:19:33;;;;;;;7.68;4.57;;;;;;;13.81;86.06;99355.91;6164533;23;20005;-74
2022/06/24 04:21:58;;;;;;;8.75;5.30;;;;;;;13.77;86.36;99358.47;6163250;23;20285;-73
2022/06/24 04:24:24;;;;;;;10.63;5.20;;;;;;;13.69;86.72;99350.19;6115450;23;20063;-72
2022/06/24 04:26:49;;;;;;;9.80;4.72;;;;;;;13.70;86.59;99352.63;6115022;23;20009;-72
2022/06/24 04:29:51;;;;;;;7.43;4.43;;;;;;;13.67;86.76;99364.22;6139949;23;20080;-73
2022/06/24 04:32:16;;;;;;;10.98;4.85;;;;;;;13.59;86.05;99343.00;6164607;23;20031;-74
2022/06/24 04:34:46;;;;;;;7.05;4.13;;;;;;;13.57;86.22;99343.31;6191795;23;20416;-75
2022/06/24 04:37:12;;;;;;;8.10;4.40;;;;;;;13.58;85.68;99342.19;6164932;23;20017;-74
2022/06/24 04:39:37;;;;;;;7.47;4.05;;;;;;;13.65;85.50;99351.94;6114961;23;20013;-74
2022/06/24 04:45:46;;;;;;;8.20;4.45;;;;;;;13.80;85.46;99357.06;6155264;23;20063;-74
2022/06/24 04:48:13;;;;;;;6.75;4.10;;;;;;;13.69;85.00;99333.69;6139442;23;20016;-73
2022/06/24 04:50:39;;;;;;;4.53;3.03;;;;;;;13.81;85.36;99349.59;6188329;23;20004;-71
2022/06/24 04:53:04;;;;;;;7.57;3.38;;;;;;;13.93;85.01;99358.06;6161997;23;20328;-73
2022/06/24 04:55:30;;;;;;;4.43;3.30;;;;;;;14.00;84.72;99352.94;6163148;23;20085;-73
2022/06/24 04:57:55;;;;;;;9.18;4.30;;;;;;;14.02;83.96;99350.72;6190520;23;20005;-73
2022/06/24 05:00:21;;;;;;;6.57;3.78;;;;;;;14.07;84.00;99347.00;6161235;23;20012;-73
2022/06/24 05:02:47;;;;;;;7.50;4.28;;;;;;;14.16;83.71;99344.31;6138900;23;20017;-73
2022/06/24 05:05:13;;;;;;;5.07;3.05;;;;;;;14.24;83.28;99352.59;6163026;23;20016;-70
2022/06/24 05:07:39;;;;;;;8.15;4.05;;;;;;;14.25;82.98;99343.22;6188939;23;20023;-73
2022/06/24 05:10:06;;;;;;;5.30;3.78;;;;;;;14.20;82.71;99339.78;6188567;23;20080;-72
2022/06/24 05:12:31;;;;;;;11.82;6.05;;;;;;;14.21;82.67;99346.94;6188638;23;20329;-72
2022/06/24 05:14:57;;;;;;;10.20;5.03;;;;;;;14.10;82.99;99341.69;6161223;23;20012;-73
2022/06/24 05:17:26;;;;;;;9.48;5.07;;;;;;;14.09;83.73;99342.81;6114967;23;20028;-74
2022/06/24 05:19:52;;;;;;;9.55;5.88;;;;;;;14.18;83.55;99347.53;6164810;23;20013;-73
2022/06/24 05:22:17;;;;;;;6.32;4.53;;;;;;;14.23;83.42;99341.91;6189098;23;20005;-73
2022/06/24 05:24:43;;;;;;;8.88;4.78;;;;;;;14.34;82.80;99346.00;6140166;23;20016;-73
2022/06/24 05:27:08;;;;;;;7.45;5.30;;;;;;;14.47;82.36;99345.09;6188518;23;20001;-74
2022/06/24 05:29:34;;;;;;;9.95;5.63;;;;;;;14.53;81.05;99347.66;6114772;23;19998;-74
2022/06/24 05:31:59;;;;;;;9.43;5.90;;;;;;;14.48;81.18;99357.72;6162982;23;20006;-73
2022/06/24 05:34:25;;;;;;;14.85;6.55;;;;;;;14.45;80.87;99350.06;6189849;23;20059;-73
2022/06/24 05:36:51;;;;;;;13.27;5.82;;;;;;;14.45;80.80;99352.81;6189871;23;20001;-73
2022/06/24 05:39:16;;;;;;;14.95;6.70;;;;;;;14.40;81.27;99341.97;6163472;23;20421;-72
2022/06/24 05:41:43;;;;;;;9.98;6.75;;;;;;;14.39;81.40;99343.09;6189989;23;20024;-73
2022/06/24 05:44:09;;;;;;;10.60;6.43;;;;;;;14.36;81.47;99345.69;6190358;23;20083;-72
2022/06/24 05:46:35;;;;;;;11.82;6.90;;;;;;;14.38;81.48;99341.47;6187237;23;20005;-73
2022/06/24 05:49:00;;;;;;;12.10;8.15;;;;;;;14.48;81.13;99345.88;6189457;23;20131;-72
2022/06/24 05:51:26;;;;;;;17.55;7.93;;;;;;;14.51;80.10;99347.19;6188049;23;20005;-72
2022/06/24 05:56:36;;;;;;;17.55;8.20;;;;;;;14.55;79.75;99323.41;6190651;23;20065;-74
2022/06/24 05:59:03;;;;;;;15.00;8.20;;;;;;;14.64;79.77;99343.53;6189732;23;20582;-72
2022/06/24 06:01:29;;;;;;;14.98;8.30;;;;;;;14.66;79.45;99335.78;6161863;23;20005;-74
2022/06/24 06:03:54;;;;;;;12.40;7.90;;;;;;;14.80;79.02;99347.44;6161930;23;20346;-73
2022/06/24 06:06:20;;;;;;;13.18;7.72;;;;;;;14.88;78.67;99334.03;6138549;23;20013;-73
2022/06/24 06:08:57;;;;;;;11.10;7.93;;;;;;;14.93;78.11;99322.88;6137748;23;20072;-71
2022/06/24 06:11:24;;;;;;;15.13;7.30;;;;;;;14.88;77.53;99309.25;6163751;23;20001;-73
2022/06/24 06:13:55;;;;;;;12.70;9.30;;;;;;;14.99;77.07;99327.09;6154270;23;20111;-74
2022/06/24 06:16:22;;;;;;;14.50;8.40;;;;;;;15.00;77.54;99339.72;6188027;23;19997;-73
2022/06/24 06:18:48;;;;;;;11.23;7.63;;;;;;;14.95;77.47;99320.59;6163178;23;20424;-73
2022/06/24 06:21:15;;;;;;;14.10;8.25;;;;;;;15.07;76.73;99333.72;6162736;23;20005;-72
2022/06/24 06:23:43;;;;;;;13.20;8.07;;;;;;;15.22;76.48;99324.19;6161785;23;20005;-73
2022/06/24 06:26:13;;;;;;;11.18;7.55;;;;;;;15.41;75.37;99335.69;6161810;23;20124;-73
2022/06/24 06:28:39;;;;;;;7.60;6.20;;;;;;;15.53;74.94;99335.03;6162933;23;20016;-74
2022/06/24 06:31:05;;;;;;;12.30;7.60;;;;;;;15.74;74.24;99335.19;6191385;23;20005;-73
2022/06/24 06:33:32;;;;;;;9.68;5.75;;;;;;;15.94;73.14;99321.84;6163613;23;20040;-73
2022/06/24 06:36:07;;;;;;;9.75;5.43;;;;;;;16.14;72.15;99332.16;6189487;23;20009;-74
2022/06/24 06:38:33;;;;;;;9.27;5.45;;;;;;;16.25;71.68;99326.28;6164383;23;20712;-75
2022/06/24 06:40:59;;;;;;;7.90;5.28;;;;;;;16.27;71.20;99344.13;6161422;23;20001;-74
2022/06/24 06:43:31;;;;;;;9.93;6.18;;;;;;;16.13;71.51;99341.56;6161740;23;20143;-76
2022/06/24 06:45:57;;;;;;;7.68;5.50;;;;;;;15.99;72.41;99338.19;6161054;23;20020;-73
2022/06/24 06:48:22;;;;;;;14.02;5.90;;;;;;;15.85;72.95;99319.91;6162291;23;20097;-74
2022/06/24 06:50:54;;;;;;;11.45;6.13;;;;;;;15.92;72.88;99335.16;6163845;23;20151;-76
2022/06/24 06:53:20;;;;;;;11.05;5.30;;;;;;;16.01;72.84;99327.66;6161992;23;20047;-74
2022/06/24 06:55:45;;;;;;;7.32;5.00;;;;;;;16.13;72.61;99326.97;6188320;23;20005;-73
2022/06/24 06:58:10;;;;;;;8.98;5.43;;;;;;;16.14;72.12;99326.66;6162522;23;20009;-74
2022/06/24 07:00:36;;;;;;;7.72;4.13;;;;;;;16.14;72.37;99334.91;6188480;23;20001;-75
2022/06/24 07:03:02;;;;;;;9.75;5.22;;;;;;;16.18;72.06;99322.09;6137997;23;20001;-74
2022/06/24 07:05:27;;;;;;;8.13;5.28;;;;;;;16.17;71.78;99328.75;6137490;23;20033;-74
2022/06/24 07:07:52;;;;;;;5.57;4.70;;;;;;;16.27;72.36;99312.97;6162578;23;20005;-75
2022/06/24 07:10:18;;;;;;;15.75;5.97;;;;;;;16.55;70.73;99325.16;6138549;23;20187;-73
2022/06/24 07:12:43;;;;;;;14.35;6.22;;;;;;;16.52;70.45;99306.50;6141364;23;20049;-75
2022/06/24 07:15:50;;;;;;;9.73;6.10;;;;;;;16.60;70.34;99293.00;6166046;23;20480;-75
2022/06/24 07:18:15;;;;;;;5.47;4.45;;;;;;;16.98;70.03;99314.22;6190678;23;20013;-75
2022/06/24 07:20:59;;;;;;;7.80;4.47;;;;;;;17.18;69.19;99313.41;6189392;23;20028;-75
2022/06/24 07:30:19;;;;;;;;;;;;;;;18.61;63.86;99325.03;6071862;23;20011;-75
2022/06/24 07:32:54;;;;;;;5.22;3.25;;;;;;;18.56;65.05;99297.63;6072780;23;19932;-75
2022/06/24 07:35:20;;;;;;;8.68;4.68;;;;;;;19.01;63.87;99307.72;6124438;23;20005;-75
2022/06/24 07:38:06;;;;;;;6.05;4.78;;;;;;;19.22;62.11;99315.06;6188348;23;20004;-75
2022/06/24 07:40:55;;;;;;;8.10;4.38;;;;;;;19.26;62.20;99321.50;6146084;23;20001;-75
2022/06/24 07:43:25;;;;;;;7.03;3.65;;;;;;;19.22;61.57;99283.78;6191287;23;20028;-73
2022/06/24 07:45:54;;;;;;;8.77;4.10;;;;;;;19.59;60.68;99286.38;6139409;23;20023;-76
2022/06/24 07:48:20;;;;;;;7.00;4.63;;;;;;;19.59;60.40;99309.34;6140859;23;20004;-74
2022/06/24 07:51:09;;;;;;;5.25;3.35;;;;;;;19.29;62.15;99283.94;6189435;23;20001;-75
2022/06/24 07:54:07;;;;;;;;;;;;;;;;;;;;;
2022/06/24 07:56:57;;;;;;;6.57;3.67;;;;;;;18.77;62.73;99296.66;6191821;23;20025;-73
2022/06/24 07:59:49;;;;;;;;;;;;;;;;;;;;;
2022/06/24 08:02:33;;;;;;;9.57;3.63;;;;;;;18.57;63.36;99284.56;6166011;23;20382;-74
2022/06/24 08:05:24;;;;;;;5.68;3.60;;;;;;;18.46;63.02;99298.09;6190582;22;20032;-74
2022/06/24 08:07:50;;;;;;;6.72;3.47;;;;;;;18.27;63.40;99280.09;6144127;23;20090;-74
2022/06/24 08:10:15;;;;;;;8.38;4.10;;;;;;;18.42;63.98;99299.91;6163963;23;20444;-72
2022/06/24 08:12:41;;;;;;;10.60;4.28;;;;;;;18.41;63.29;99267.84;6164007;23;20065;-73
2022/06/24 08:15:17;;;;;;;11.70;3.97;;;;;;;18.70;62.64;99277.84;6163325;23;20008;-72
2022/06/24 08:17:43;;;;;;;4.40;3.17;;;;;;;18.94;62.60;99273.44;6189055;23;20025;-74
2022/06/24 08:20:09;;;;;;;6.93;3.40;;;;;;;19.40;61.12;99256.56;6162712;23;20012;-74
2022/06/24 08:22:34;;;;;;;6.05;3.58;;;;;;;19.61;59.78;99273.78;6161925;23;20447;-72
2022/06/24 08:25:01;;;;;;;8.20;3.60;;;;;;;19.63;59.73;99257.56;6162955;23;20013;-72
2022/06/24 08:27:26;;;;;;;12.55;2.90;;;;;;;19.95;58.06;99254.06;6162995;23;20420;-74
2022/06/24 08:29:54;;;;;;;6.22;3.00;;;;;;;20.38;56.62;99272.59;6163124;23;20005;-73
2022/06/24 08:32:20;;;;;;;7.18;2.85;;;;;;;20.36;56.42;99272.13;6138229;23;20088;-71
2022/06/24 08:34:45;;;;;;;5.10;2.28;;;;;;;20.12;56.01;99239.84;6188332;23;20008;-73
2022/06/24 08:37:11;;;;;;;4.40;2.92;;;;;;;19.80;56.46;99247.34;6136636;23;20005;-73
2022/06/24 08:39:39;;;;;;;6.20;2.90;;;;;;;19.36;58.14;99246.19;6188359;23;20039;-72
2022/06/24 08:42:06;;;;;;;6.03;2.70;;;;;;;19.07;59.11;99277.00;6189063;23;20001;-72
2022/06/24 08:44:34;;;;;;;5.20;2.90;;;;;;;18.98;59.96;99253.03;6162766;23;20032;-73
2022/06/24 08:47:03;;;;;;;7.05;3.40;;;;;;;18.76;61.09;99259.88;6189358;23;20080;-72
2022/06/24 08:49:32;;;;;;;9.35;3.38;;;;;;;18.83;61.53;99262.81;6163284;23;20012;-72
2022/06/24 08:52:00;;;;;;;5.38;2.40;;;;;;;19.40;60.52;99275.94;6189205;23;20555;-73
2022/06/24 08:54:41;;;;;;;5.68;2.80;;;;;;;19.68;58.88;99273.97;6159627;23;20545;-72
2022/06/24 08:57:08;;;;;;;5.45;2.60;;;;;;;19.92;58.14;99266.69;6159977;23;20056;-72
2022/06/24 08:59:34;;;;;;;5.18;2.90;;;;;;;19.71;58.21;99253.84;6161676;23;20004;-74
2022/06/24 09:02:09;;;;;;;;;;;;;;;;;;;;;
2022/06/24 09:04:35;;;;;;;9.70;3.15;;;;;;;19.61;59.44;99262.69;6139556;23;20500;-72
2022/06/24 09:07:01;;;;;;;9.32;4.05;;;;;;;19.54;58.58;99270.81;6159969;23;20028;-71
2022/06/24 09:09:30;;;;;;;3.90;3.10;;;;;;;19.35;59.59;99243.75;6163469;23;20012;-71
2022/06/24 09:12:01;;;;;;;6.68;3.60;;;;;;;19.74;58.74;99248.72;6187637;23;20012;-72
2022/06/24 09:14:45;;;;;;;9.48;4.15;;;;;;;19.87;58.24;99250.28;6161743;23;20005;-73
2022/06/24 09:17:14;;;;;;;6.57;2.72;;;;;;;20.05;58.23;99251.56;6188648;23;20021;-72
2022/06/24 09:19:40;;;;;;;5.32;3.30;;;;;;;20.12;57.66;99239.84;6163073;23;20009;-71
2022/06/24 09:22:06;;;;;;;8.20;2.72;;;;;;;20.40;57.18;99247.22;6189414;23;20001;-72
2022/06/24 09:24:47;;;;;;;8.55;3.15;;;;;;;20.14;57.03;99225.59;6162667;23;20017;-73
2022/06/24 09:27:13;;;;;;;6.22;2.95;;;;;;;20.01;57.06;99225.69;6187813;23;20060;-72
2022/06/24 09:29:48;;;;;;;8.95;3.25;;;;;;;19.64;58.55;99239.78;6163137;23;20005;-72
2022/06/24 09:32:14;;;;;;;6.43;2.90;;;;;;;19.18;60.07;99239.31;6162927;23;20005;-70
2022/06/24 09:35:07;;;;;;;5.75;3.05;;;;;;;19.07;61.27;99244.56;6136421;23;20023;-72
2022/06/24 09:37:41;;;;;;;5.75;3.20;;;;;;;18.93;61.32;99222.78;6185253;23;19989;-72
2022/06/24 09:40:17;;;;;;;6.38;3.03;;;;;;;19.15;60.90;99228.94;6187416;23;20004;-72
2022/06/24 09:42:51;;;;;;;6.55;2.88;;;;;;;19.45;60.57;99220.25;6186639;23;20027;-72
2022/06/24 09:45:26;;;;;;;;;;;;;;;;;;;;;
2022/06/24 09:47:57;;;;;;;7.30;3.80;;;;;;;20.89;56.52;99241.19;6186761;23;20048;-72
2022/06/24 09:50:28;;;;;;;5.53;2.92;;;;;;;21.37;55.03;99229.84;6161399;23;20012;-73
2022/06/24 09:52:54;;;;;;;5.75;2.65;;;;;;;21.73;54.46;99222.19;6161738;23;20084;-73
2022/06/24 09:55:21;;;;;;;4.75;2.85;;;;;;;21.25;54.99;99236.38;6185761;23;20005;-71
2022/06/24 09:58:21;;;;;;;5.18;3.42;;;;;;;20.11;57.70;99229.09;6188319;23;20013;-73
2022/06/24 10:01:07;;;;;;;5.60;3.47;;;;;;;19.31;60.00;99220.69;6177999;23;20067;-74
2022/06/24 10:03:35;;;;;;;9.68;2.78;;;;;;;18.95;61.78;99209.41;6160494;23;20068;-72
2022/06/24 10:06:12;;;;;;;6.40;3.70;;;;;;;19.00;62.70;99216.66;6163953;23;20021;-75
2022/06/24 10:08:41;;;;;;;4.20;2.47;;;;;;;19.45;61.91;99209.16;6190150;23;20009;-71
2022/06/24 10:11:12;;;;;;;7.90;3.35;;;;;;;20.43;59.29;99224.28;6218197;23;20007;-71
2022/06/24 10:13:40;;;;;;;6.90;2.83;;;;;;;21.12;57.79;99215.47;6217255;23;20533;-72
2022/06/24 10:16:08;;;;;;;9.95;3.33;;;;;;;21.73;55.38;99227.75;6189986;23;20008;-71
2022/06/24 10:18:40;;;;;;;4.47;2.55;;;;;;;21.89;54.53;99218.44;6189456;23;20874;-73
2022/06/24 10:21:08;;;;;;;4.80;2.85;;;;;;;21.85;53.82;99207.28;6216807;23;20001;-72
2022/06/24 10:23:41;;;;;;;5.93;3.65;;;;;;;21.78;54.12;99216.28;6186658;23;20016;-72
2022/06/24 10:26:26;;;;;;;;;;;;;;;;;;;;;
2022/06/24 10:29:07;;;;;;;4.57;2.13;;;;;;;20.67;55.98;99217.69;6214563;23;20076;-72
2022/06/24 10:31:53;;;;;;;5.32;2.25;;;;;;;19.84;58.62;99209.41;6217497;23;20015;-73
2022/06/24 10:34:20;;;;;;;3.35;2.20;;;;;;;19.23;61.40;99211.38;6187950;23;20013;-73
2022/06/24 10:36:46;;;;;;;4.25;2.70;;;;;;;18.93;63.13;99195.09;6214908;23;20023;-71
2022/06/24 10:39:18;;;;;;;3.58;2.22;;;;;;;18.91;63.12;99200.19;6215519;23;20004;-72
2022/06/24 10:41:49;;;;;;;;;;;;;;;19.10;63.97;99216.16;6214233;23;20000;-71
2022/06/24 10:44:28;;;;;;;7.20;3.25;;;;;;;19.83;62.17;99189.19;6188141;23;19918;-72
2022/06/24 10:47:05;;;;;;;4.75;2.88;;;;;;;24.12;52.28;99212.88;6216104;23;20719;-73
2022/06/24 10:49:55;;;;;;;4.18;2.28;;;;;;;29.46;41.12;99205.66;6216044;23;20005;-71
2022/06/24 10:52:55;;;;;;;10.05;2.60;;;;;;;30.25;34.61;99212.84;6190459;23;20035;-73
2022/06/24 10:55:21;;;;;;;4.50;2.88;;;;;;;26.90;39.52;99210.72;6216200;23;20043;-72
2022/06/24 10:57:59;;;;;;;5.47;3.03;;;;;;;24.77;44.55;99188.16;6218932;23;20024;-71
2022/06/24 11:00:36;;;;;;;6.05;2.72;;;;;;;23.88;46.95;99194.75;6217489;23;20004;-71
2022/06/24 11:03:04;;;;;;;8.57;2.67;;;;;;;22.89;49.83;99204.44;6218022;23;20011;-71
2022/06/24 11:05:32;;;;;;;5.97;2.47;;;;;;;21.97;51.93;99197.94;6192123;23;20091;-71
2022/06/24 11:07:59;;;;;;;10.77;2.70;;;;;;;21.29;53.18;99180.84;6189858;23;20096;-71
2022/06/24 11:10:31;;;;;;;11.80;2.85;;;;;;;20.80;54.50;99198.13;6190508;23;20013;-71
2022/06/24 11:13:02;;;;;;;8.82;3.72;;;;;;;20.36;56.02;99183.28;6190268;23;20015;-72
2022/06/24 11:15:34;;;;;;;5.70;2.47;;;;;;;20.19;57.03;99189.22;6217608;23;20011;-71
2022/06/24 11:18:21;;;;;;;6.05;2.55;;;;;;;20.37;56.57;99178.53;6217477;23;20012;-72
2022/06/24 11:20:58;;;;;;;;;;;;;;;;;;;;;
2022/06/24 11:23:27;;;;;;;4.57;2.90;;;;;;;20.98;55.30;99188.16;6219118;23;20020;-72
2022/06/24 11:25:59;;;;;;;7.85;2.60;;;;;;;20.81;55.96;99183.88;6191823;23;20032;-72
2022/06/24 11:28:36;;;;;;;13.43;3.05;;;;;;;20.86;54.95;99171.66;6214557;23;20015;-73
2022/06/24 11:31:29;;;;;;;7.18;2.78;;;;;;;21.71;53.47;99185.59;6192258;23;20004;-72
2022/06/24 11:34:02;;;;;;;7.75;3.22;;;;;;;22.25;50.42;99180.06;6219132;23;20335;-72
2022/06/24 11:36:28;;;;;;;4.25;2.47;;;;;;;22.02;50.56;99183.72;6218146;23;21264;-72
2022/06/24 11:39:23;;;;;;;8.95;2.72;;;;;;;21.14;52.00;99181.75;6167750;23;20107;-72
2022/06/24 11:41:48;;;;;;;;;;;;;;;20.67;54.14;99192.69;6205686;23;20044;-72
2022/06/24 11:44:14;;;;;;;6.15;2.80;;;;;;;20.49;55.19;99189.53;6219221;23;20239;-71
2022/06/24 11:46:40;;;;;;;5.25;2.17;;;;;;;20.37;55.57;99187.69;6191330;23;20051;-71
2022/06/24 11:49:30;;;;;;;12.20;2.40;;;;;;;20.86;54.88;99157.78;6186869;23;20015;-71
2022/06/24 11:51:55;;;;;;;7.20;2.28;;;;;;;21.64;52.84;99179.91;6205348;23;20324;-72
2022/06/24 11:54:26;;;;;;;7.57;3.42;;;;;;;22.34;50.95;99180.63;6166812;23;20065;-73
2022/06/24 11:56:51;;;;;;;4.32;2.33;;;;;;;22.78;49.51;99182.81;6215416;23;20039;-70
2022/06/24 11:59:43;;;;;;;5.28;2.42;;;;;;;23.07;48.00;99179.56;6168296;23;20005;-76
2022/06/24 12:02:14;;;;;;;6.78;3.35;;;;;;;23.30;45.85;99187.81;6218584;23;20008;-70
2022/06/24 12:04:40;;;;;;;6.80;2.22;;;;;;;23.33;45.82;99170.31;6191070;23;20388;-72
2022/06/24 12:07:09;;;;;;;4.22;1.90;;;;;;;23.51;45.19;99157.34;6218384;23;20027;-71
2022/06/24 12:09:36;;;;;;;4.82;1.83;;;;;;;23.79;45.93;99163.56;6189623;23;19996;-71